createdAt,value
2022-11-08T06:32:36.439Z,10.00
2022-11-08T06:35:04.390Z,10.00
2022-11-08T06:37:31.577Z,10.10
2022-11-08T06:39:59.426Z,10.20
2022-11-08T06:42:26.866Z,10.30
2022-11-08T06:44:54.108Z,10.30
2022-11-08T06:47:21.523Z,10.40
2022-11-08T06:49:48.967Z,10.50
2022-11-08T06:52:16.320Z,10.50
2022-11-08T06:54:43.594Z,10.50
2022-11-08T06:57:12.835Z,10.60
2022-11-08T06:59:40.200Z,10.60
2022-11-08T07:02:11.048Z,10.60
2022-11-08T07:04:39.004Z,10.60
2022-11-08T07:07:06.580Z,10.30
2022-11-08T07:09:33.793Z,10.60
2022-11-08T07:12:01.610Z,10.70
2022-11-08T07:14:28.811Z,10.60
2022-11-08T07:16:56.674Z,10.50
2022-11-08T07:19:24.165Z,10.50
2022-11-08T07:21:51.510Z,10.60
2022-11-08T07:24:19.255Z,10.60
2022-11-08T07:26:46.815Z,10.70
2022-11-08T07:29:16.263Z,10.70
2022-11-08T07:31:43.781Z,10.70
2022-11-08T07:34:11.118Z,10.80
2022-11-08T07:36:38.471Z,10.90
2022-11-08T07:39:06.891Z,11.10
2022-11-08T07:41:35.486Z,11.20
2022-11-08T07:44:02.910Z,11.40
2022-11-08T07:46:30.284Z,11.60
2022-11-08T07:48:57.511Z,11.70
2022-11-08T07:51:24.817Z,11.90
2022-11-08T07:53:52.117Z,12.20
2022-11-08T07:56:19.401Z,12.60
2022-11-08T07:58:47.012Z,12.90
2022-11-08T08:01:14.271Z,13.10
2022-11-08T08:03:41.583Z,13.40
2022-11-08T08:06:09.077Z,13.50
2022-11-08T08:08:36.365Z,13.50
2022-11-08T08:11:05.063Z,13.70
2022-11-08T08:13:32.373Z,13.70
2022-11-08T08:16:01.119Z,13.20
2022-11-08T08:18:30.060Z,13.00
2022-11-08T08:20:58.018Z,12.80
2022-11-08T08:23:25.571Z,12.70
2022-11-08T08:25:52.961Z,12.70
2022-11-08T08:28:20.638Z,12.60
2022-11-08T08:30:47.942Z,12.50
2022-11-08T08:33:32.714Z,12.60
2022-11-08T08:36:02.071Z,12.70
2022-11-08T08:38:30.946Z,12.80
2022-11-08T08:40:59.272Z,12.90
2022-11-08T08:43:28.206Z,12.80
2022-11-08T08:45:59.737Z,12.80
2022-11-08T08:48:27.383Z,12.90
2022-11-08T08:50:54.946Z,13.00
2022-11-08T08:53:22.593Z,13.90
2022-11-08T08:55:52.547Z,13.10
2022-11-08T08:58:21.446Z,12.90
2022-11-08T09:03:41.210Z,12.80
2022-11-08T09:06:22.915Z,14.40
2022-11-08T09:08:56.044Z,12.50
2022-11-08T09:11:37.621Z,12.40
2022-11-08T09:14:12.138Z,14.00
2022-11-08T09:16:44.098Z,12.50
2022-11-08T09:19:12.020Z,12.90
2022-11-08T09:21:39.842Z,13.40
2022-11-08T09:24:07.564Z,14.50
2022-11-08T09:26:35.766Z,14.50
2022-11-08T09:29:03.167Z,14.90
2022-11-08T09:31:30.457Z,14.60
2022-11-08T09:33:57.937Z,15.70
2022-11-08T09:36:26.314Z,17.00
2022-11-08T09:39:00.346Z,18.00
2022-11-08T09:41:58.036Z,18.20
2022-11-08T09:44:53.504Z,17.40
2022-11-08T09:47:26.099Z,16.90
2022-11-08T09:50:05.978Z,16.20
2022-11-08T09:52:40.391Z,16.00
2022-11-08T09:55:32.856Z,15.40
2022-11-08T09:58:16.251Z,14.90
2022-11-08T10:00:46.088Z,15.90
2022-11-08T10:03:16.258Z,14.10
2022-11-08T10:05:58.087Z,15.20
2022-11-08T10:08:41.110Z,15.40
2022-11-08T10:11:39.441Z,16.70
2022-11-08T10:14:34.615Z,16.00
2022-11-08T10:17:29.745Z,15.50
2022-11-08T10:20:27.980Z,16.50
2022-11-08T10:23:10.278Z,15.20
2022-11-08T10:25:45.567Z,16.70
2022-11-08T10:28:17.834Z,17.00
2022-11-08T10:30:49.602Z,17.30
2022-11-08T10:33:29.101Z,17.20
2022-11-08T10:36:03.768Z,17.10
2022-11-08T10:38:44.611Z,17.10
2022-11-08T10:41:30.352Z,17.00
2022-11-08T10:44:11.712Z,17.20
2022-11-08T10:46:50.204Z,17.30
2022-11-08T10:49:39.776Z,17.60
2022-11-08T10:52:32.129Z,17.90
2022-11-08T10:55:01.621Z,17.90
2022-11-08T10:57:35.225Z,18.70
2022-11-08T11:03:33.090Z,19.00
2022-11-08T11:06:03.907Z,19.20
2022-11-08T11:08:32.260Z,18.90
2022-11-08T11:11:24.166Z,18.70
2022-11-08T11:14:16.532Z,18.70
2022-11-08T11:17:15.895Z,18.70
2022-11-08T11:19:54.792Z,18.80
2022-11-08T11:22:32.635Z,18.30
2022-11-08T11:25:16.783Z,17.60
2022-11-08T11:27:51.355Z,17.30
2022-11-08T11:33:07.095Z,17.10
2022-11-08T11:36:13.873Z,16.50
2022-11-08T11:39:10.553Z,16.30
2022-11-08T11:41:45.801Z,16.40
2022-11-08T11:44:21.774Z,16.30
2022-11-08T11:47:02.003Z,16.10
2022-11-08T11:49:31.033Z,16.00
2022-11-08T11:51:58.795Z,16.00
2022-11-08T11:54:31.160Z,16.00
2022-11-08T11:57:08.592Z,16.00
2022-11-08T12:02:43.982Z,16.10
2022-11-08T12:05:39.662Z,16.00
2022-11-08T12:11:36.101Z,15.90
2022-11-08T12:14:25.275Z,16.10
2022-11-08T12:20:07.479Z,16.20
2022-11-08T12:23:02.597Z,16.30
2022-11-08T12:28:47.559Z,16.40
2022-11-08T12:34:10.450Z,16.50
2022-11-08T12:36:50.212Z,16.60
2022-11-08T12:39:32.008Z,16.50
2022-11-08T12:42:15.724Z,16.50
2022-11-08T12:50:42.457Z,16.30
2022-11-08T12:53:48.902Z,16.40
2022-11-08T12:56:22.971Z,16.40
2022-11-08T12:58:52.870Z,16.40
2022-11-08T13:01:22.275Z,16.40
2022-11-08T13:04:29.562Z,16.40
2022-11-08T13:07:07.559Z,16.30
2022-11-08T13:10:12.420Z,16.30
2022-11-08T13:12:50.671Z,16.20
2022-11-08T13:15:22.845Z,16.20
2022-11-08T13:18:12.764Z,16.20
2022-11-08T13:20:44.867Z,16.10
2022-11-08T13:23:16.251Z,16.10
2022-11-08T13:25:44.500Z,16.10
2022-11-08T13:28:47.150Z,16.10
2022-11-08T13:31:30.984Z,16.10
2022-11-08T13:34:23.726Z,16.10
2022-11-08T13:37:19.266Z,16.10
2022-11-08T13:40:06.252Z,16.10
2022-11-08T13:42:41.836Z,16.00
2022-11-08T13:48:23.734Z,16.10
2022-11-08T13:50:56.929Z,16.10
2022-11-08T13:53:42.548Z,16.10
2022-11-08T13:58:47.840Z,16.00
2022-11-08T14:04:01.225Z,15.90
2022-11-08T14:06:49.867Z,15.90
2022-11-08T14:09:33.468Z,15.90
2022-11-08T14:15:07.183Z,15.80
2022-11-08T14:17:44.752Z,15.90
2022-11-08T14:22:56.808Z,15.90
2022-11-08T14:25:30.528Z,16.00
2022-11-08T14:27:58.604Z,16.00
2022-11-08T14:30:26.681Z,16.10
2022-11-08T14:33:17.175Z,16.10
2022-11-08T14:35:54.077Z,16.10
2022-11-08T14:38:21.662Z,16.10
2022-11-08T14:40:52.989Z,16.00
2022-11-08T14:43:21.973Z,16.00
2022-11-08T14:45:49.850Z,15.90
2022-11-08T14:48:23.375Z,15.90
2022-11-08T14:50:58.682Z,15.80
2022-11-08T14:53:29.377Z,15.80
2022-11-08T14:56:03.093Z,15.70
2022-11-08T14:58:31.191Z,15.60
2022-11-08T15:01:01.436Z,15.50
2022-11-08T15:03:31.670Z,15.50
2022-11-08T15:06:01.664Z,15.40
2022-11-08T15:08:35.869Z,15.40
2022-11-08T15:11:07.247Z,15.30
2022-11-08T15:13:45.965Z,15.30
2022-11-08T15:16:13.457Z,15.20
2022-11-08T15:18:42.847Z,15.20
2022-11-08T15:21:18.485Z,15.10
2022-11-08T15:23:53.544Z,15.10
2022-11-08T15:26:26.111Z,15.00
2022-11-08T15:29:15.976Z,14.90
2022-11-08T15:31:48.788Z,14.80
2022-11-08T15:34:21.926Z,14.80
2022-11-08T15:36:49.659Z,14.80
2022-11-08T15:39:23.234Z,14.80
2022-11-08T15:42:12.878Z,14.60
2022-11-08T15:45:06.464Z,14.70
2022-11-08T15:50:23.941Z,14.50
2022-11-08T15:52:54.175Z,14.30
2022-11-08T15:55:25.363Z,14.20
2022-11-08T15:57:54.358Z,14.20
2022-11-08T16:00:24.759Z,14.10
2022-11-08T16:02:52.909Z,14.10
2022-11-08T16:05:23.667Z,14.00
2022-11-08T16:07:52.043Z,14.00
2022-11-08T16:10:26.025Z,13.90
2022-11-08T16:12:53.963Z,13.90
2022-11-08T16:15:24.760Z,13.80
2022-11-08T16:17:52.006Z,13.80
2022-11-08T16:20:36.273Z,13.90
2022-11-08T16:23:06.264Z,13.90
2022-11-08T16:25:39.671Z,13.90
2022-11-08T16:28:13.140Z,13.90
2022-11-08T16:30:46.197Z,13.90
2022-11-08T16:33:17.984Z,13.90
2022-11-08T16:35:45.189Z,14.00
2022-11-08T16:38:12.417Z,13.90
2022-11-08T16:40:41.363Z,13.90
2022-11-08T16:43:12.368Z,13.90
2022-11-08T16:46:03.932Z,13.90
2022-11-08T16:48:27.403Z,13.90
2022-11-08T16:51:01.274Z,13.80
2022-11-08T16:53:30.074Z,13.80
2022-11-08T16:55:57.929Z,13.80
2022-11-08T16:58:26.815Z,13.70
